Time;durP1;ratioP1;P1;durP2;ratioP2;P2;SDS_P1;SDS_P2;PMS_P1;PMS_P2;Temp;Humidity;BMP_temperature;BMP_pressure;BME280_temperature;BME280_humidity;BME280_pressure;Samples;Min_cycle;Max_cycle;Signal;HPM_P1;HPM_P2
2022/04/24 00:01:11;;;;;;;;;;;11.20;83.00;;;;;;5037939;28;40260;-57
2022/04/24 00:03:39;;;;;;;;;;;11.20;82.70;;;;;;5040131;28;39167;-57
2022/04/24 00:06:07;;;;;;;;;;;11.20;83.10;;;;;;5033751;28;35095;-57
2022/04/24 00:08:34;;;;;;;;;;;11.20;82.90;;;;;;5038146;28;36536;-57
2022/04/24 00:11:01;;;;;;;;;;;11.20;82.80;;;;;;5037038;28;37979;-57
2022/04/24 00:13:31;;;;;;;;;;;11.20;82.10;;;;;;5038433;28;38104;-57
2022/04/24 00:15:58;;;;;;;;;;;11.10;83.10;;;;;;5036961;28;36088;-57
2022/04/24 00:18:25;;;;;;;;;;;11.10;82.90;;;;;;5038768;28;36424;-58
2022/04/24 00:20:52;;;;;;;;;;;11.10;82.60;;;;;;5038079;28;38679;-57
2022/04/24 00:23:21;;;;;;;;;;;11.10;83.10;;;;;;5036791;28;36094;-57
2022/04/24 00:25:48;;;;;;;;;;;11.00;83.10;;;;;;5039074;28;35282;-58
2022/04/24 00:28:15;;;;;;;;;;;11.10;83.30;;;;;;5038153;28;39693;-57
2022/04/24 00:30:42;;;;;;;;;;;11.10;82.70;;;;;;5038848;28;35652;-57
2022/04/24 00:33:09;;;;;;;;;;;11.00;83.00;;;;;;5038121;28;36978;-57
2022/04/24 00:35:36;;;;;;;;;;;11.00;83.60;;;;;;5039603;28;35130;-57
2022/04/24 00:38:03;;;;;;;;;;;11.00;83.60;;;;;;5039041;28;37592;-57
2022/04/24 00:40:32;;;;;;;;;;;10.90;83.00;;;;;;5039062;28;39472;-57
2022/04/24 00:42:59;;;;;;;;;;;10.90;83.40;;;;;;5038618;28;37512;-57
2022/04/24 00:45:26;;;;;;;;;;;10.90;83.10;;;;;;5038839;28;35981;-57
2022/04/24 00:47:53;;;;;;;;;;;10.90;82.80;;;;;;5037274;28;40821;-57
2022/04/24 00:50:20;;;;;;;;;;;10.90;83.20;;;;;;5037220;28;37929;-57
2022/04/24 00:52:50;;;;;;;;;;;10.90;83.10;;;;;;5034902;28;37088;-57
2022/04/24 00:55:18;;;;;;;;;;;11.00;83.30;;;;;;5036598;28;36234;-57
2022/04/24 00:57:46;;;;;;;;;;;10.90;83.50;;;;;;5037605;28;37885;-56
2022/04/24 01:00:14;;;;;;;;;;;10.90;82.70;;;;;;5038984;28;38515;-57
2022/04/24 01:02:41;;;;;;;;;;;10.80;81.70;;;;;;5036881;28;37419;-57
2022/04/24 01:05:09;;;;;;;;;;;10.80;82.10;;;;;;5037451;28;36500;-57
2022/04/24 01:07:36;;;;;;;;;;;11.00;82.50;;;;;;5037245;28;36539;-57
2022/04/24 01:10:03;;;;;;;;;;;10.70;81.80;;;;;;5037255;28;38983;-57
2022/04/24 01:12:30;;;;;;;;;;;10.70;82.30;;;;;;5035641;28;37136;-57
2022/04/24 01:15:07;;;;;;;;;;;10.70;81.70;;;;;;5038866;28;37664;-57
2022/04/24 01:17:34;;;;;;;;;;;10.70;81.40;;;;;;5036803;28;37530;-57
2022/04/24 01:20:02;;;;;;;;;;;10.70;81.80;;;;;;5037068;28;37262;-57
2022/04/24 01:22:30;;;;;;;;;;;10.70;81.90;;;;;;5036436;28;38356;-57
2022/04/24 01:24:57;;;;;;;;;;;10.70;81.70;;;;;;5036921;28;37397;-57
2022/04/24 01:27:24;;;;;;;;;;;10.70;81.70;;;;;;5037945;28;38178;-58
2022/04/24 01:29:51;;;;;;;;;;;10.60;82.20;;;;;;5036710;28;37959;-58
2022/04/24 01:32:18;;;;;;;;;;;10.60;83.20;;;;;;5037635;28;35904;-57
2022/04/24 01:34:46;;;;;;;;;;;10.60;85.30;;;;;;5036988;28;37121;-57
2022/04/24 01:37:13;;;;;;;;;;;10.50;84.90;;;;;;5034078;28;38147;-57
2022/04/24 01:39:41;;;;;;;;;;;10.40;84.00;;;;;;5036568;28;39805;-57
2022/04/24 01:42:08;;;;;;;;;;;10.40;84.30;;;;;;5037358;28;37139;-57
2022/04/24 01:44:35;;;;;;;;;;;10.30;84.60;;;;;;5036237;28;36955;-57
2022/04/24 01:47:03;;;;;;;;;;;10.30;84.70;;;;;;5036940;28;37879;-57
2022/04/24 01:49:31;;;;;;;;;;;10.40;84.70;;;;;;5037327;28;39312;-57
2022/04/24 01:51:58;;;;;;;;;;;10.30;84.20;;;;;;5035965;28;36921;-57
2022/04/24 01:54:25;;;;;;;;;;;10.30;85.80;;;;;;5035234;28;36980;-57
2022/04/24 01:56:53;;;;;;;;;;;10.20;86.50;;;;;;5035865;28;38456;-56
2022/04/24 01:59:20;;;;;;;;;;;10.10;87.80;;;;;;5037636;28;37975;-57
2022/04/24 02:01:48;;;;;;;;;;;10.10;88.20;;;;;;5037149;28;40440;-57
2022/04/24 02:04:15;;;;;;;;;;;10.10;88.20;;;;;;5035877;28;36539;-57
2022/04/24 02:06:42;;;;;;;;;;;10.00;88.60;;;;;;5034918;28;40611;-57
2022/04/24 02:09:09;;;;;;;;;;;10.00;88.90;;;;;;5035569;28;37861;-57
2022/04/24 02:11:36;;;;;;;;;;;10.00;88.80;;;;;;5038267;28;38561;-57
2022/04/24 02:14:05;;;;;;;;;;;9.90;89.00;;;;;;5035660;28;36376;-57
2022/04/24 02:16:32;;;;;;;;;;;9.80;89.70;;;;;;5036073;28;37682;-57
2022/04/24 02:18:59;;;;;;;;;;;9.70;90.20;;;;;;5035638;28;37940;-57
2022/04/24 02:21:28;;;;;;;;;;;9.60;90.20;;;;;;5034248;28;36597;-57
2022/04/24 02:23:55;;;;;;;;;;;9.60;90.20;;;;;;5033757;28;35954;-57
2022/04/24 02:26:22;;;;;;;;;;;9.50;90.50;;;;;;5035709;28;36827;-57
2022/04/24 02:28:49;;;;;;;;;;;9.50;90.80;;;;;;5036041;28;36701;-57
2022/04/24 02:31:21;;;;;;;;;;;9.40;90.80;;;;;;5037493;28;37118;-57
2022/04/24 02:33:48;;;;;;;;;;;9.40;90.90;;;;;;5035815;28;35255;-57
2022/04/24 02:36:15;;;;;;;;;;;9.40;90.90;;;;;;5037075;28;38261;-57
2022/04/24 02:38:45;;;;;;;;;;;9.30;91.20;;;;;;5036057;28;38705;-57
2022/04/24 02:41:12;;;;;;;;;;;9.30;91.40;;;;;;5036764;28;36018;-57
2022/04/24 02:43:42;;;;;;;;;;;9.30;91.30;;;;;;5036353;28;39683;-57
2022/04/24 02:46:09;;;;;;;;;;;9.30;91.00;;;;;;5033758;28;37711;-57
2022/04/24 02:48:39;;;;;;;;;;;9.30;91.50;;;;;;5036607;28;39470;-57
2022/04/24 02:51:06;;;;;;;;;;;9.20;91.80;;;;;;5035396;28;37675;-57
2022/04/24 02:53:33;;;;;;;;;;;9.20;91.50;;;;;;5037188;28;36997;-57
2022/04/24 02:56:00;;;;;;;;;;;9.20;91.80;;;;;;5035617;28;38114;-56
2022/04/24 02:58:27;;;;;;;;;;;9.20;91.70;;;;;;5036668;28;38081;-57
2022/04/24 03:00:56;;;;;;;;;;;9.20;91.90;;;;;;5035058;28;37081;-57
2022/04/24 03:03:23;;;;;;;;;;;9.20;92.20;;;;;;5036358;28;36976;-57
2022/04/24 03:05:52;;;;;;;;;;;9.10;91.40;;;;;;5036171;28;35287;-56
2022/04/24 03:08:22;;;;;;;;;;;9.10;92.20;;;;;;5035958;28;39199;-57
2022/04/24 03:10:49;;;;;;;;;;;9.10;92.30;;;;;;5035620;28;39040;-57
2022/04/24 03:13:16;;;;;;;;;;;9.10;92.20;;;;;;5036281;28;35183;-57
2022/04/24 03:15:44;;;;;;;;;;;9.00;93.00;;;;;;5036964;28;39349;-57
2022/04/24 03:18:11;;;;;;;;;;;9.00;92.60;;;;;;5038217;28;39153;-57
2022/04/24 03:20:38;;;;;;;;;;;8.90;93.20;;;;;;5035108;28;37840;-57
2022/04/24 03:23:09;;;;;;;;;;;8.90;93.40;;;;;;5036922;28;37109;-57
2022/04/24 03:25:36;;;;;;;;;;;8.90;93.00;;;;;;5035124;28;38286;-57
2022/04/24 03:28:04;;;;;;;;;;;8.90;92.90;;;;;;5037619;28;36595;-57
2022/04/24 03:30:31;;;;;;;;;;;8.90;92.80;;;;;;5035393;28;37314;-58
2022/04/24 03:32:58;;;;;;;;;;;8.90;92.80;;;;;;5037778;28;34932;-57
2022/04/24 03:35:26;;;;;;;;;;;8.90;92.40;;;;;;5038464;28;38815;-57
2022/04/24 03:37:53;;;;;;;;;;;8.90;92.10;;;;;;5040070;28;38294;-57
2022/04/24 03:40:21;;;;;;;;;;;8.90;92.30;;;;;;5041339;28;38111;-57
2022/04/24 03:42:48;;;;;;;;;;;8.90;92.80;;;;;;5040393;28;39940;-57
2022/04/24 03:45:15;;;;;;;;;;;8.90;93.00;;;;;;5038208;28;38427;-57
2022/04/24 03:47:43;;;;;;;;;;;8.90;93.10;;;;;;5040427;28;37727;-56
2022/04/24 03:50:13;;;;;;;;;;;8.80;92.90;;;;;;5039493;28;37258;-57
2022/04/24 03:52:40;;;;;;;;;;;8.80;92.80;;;;;;5039792;28;35186;-57
2022/04/24 03:55:08;;;;;;;;;;;8.80;92.50;;;;;;5037395;28;39123;-57
2022/04/24 03:57:37;;;;;;;;;;;8.80;92.80;;;;;;5036934;28;38967;-57
2022/04/24 04:00:05;;;;;;;;;;;8.80;93.10;;;;;;5039994;28;36991;-57
2022/04/24 04:02:32;;;;;;;;;;;8.80;92.90;;;;;;5036940;28;36547;-56
2022/04/24 04:04:59;;;;;;;;;;;8.80;92.60;;;;;;5036536;28;39436;-56
2022/04/24 04:07:26;;;;;;;;;;;8.80;93.20;;;;;;5038179;28;38044;-57
2022/04/24 04:09:55;;;;;;;;;;;8.80;93.20;;;;;;5038841;28;37006;-57
2022/04/24 04:12:26;;;;;;;;;;;8.80;93.50;;;;;;5038028;28;36292;-57
2022/04/24 04:14:54;;;;;;;;;;;8.80;93.60;;;;;;5037044;28;36330;-57
2022/04/24 04:17:21;;;;;;;;;;;8.80;93.40;;;;;;5039376;28;36871;-57
2022/04/24 04:19:51;;;;;;;;;;;8.80;93.50;;;;;;5037655;28;38636;-56
2022/04/24 04:22:19;;;;;;;;;;;8.80;93.60;;;;;;5039172;28;37503;-57
2022/04/24 04:24:46;;;;;;;;;;;8.90;93.50;;;;;;5036789;28;39049;-57
2022/04/24 04:27:13;;;;;;;;;;;8.80;93.60;;;;;;5039328;28;39424;-57
2022/04/24 04:29:40;;;;;;;;;;;8.90;93.60;;;;;;5038905;28;38705;-57
2022/04/24 04:32:09;;;;;;;;;;;8.90;93.60;;;;;;5039657;28;37289;-56
2022/04/24 04:34:36;;;;;;;;;;;8.90;93.50;;;;;;5038192;28;38198;-57
2022/04/24 04:37:03;;;;;;;;;;;8.90;94.00;;;;;;5039113;28;37516;-57
2022/04/24 04:39:30;;;;;;;;;;;8.80;93.60;;;;;;5037294;28;37255;-58
2022/04/24 04:42:00;;;;;;;;;;;8.80;94.20;;;;;;5037893;28;35150;-56
2022/04/24 04:44:27;;;;;;;;;;;8.70;94.10;;;;;;5037962;28;38969;-57
2022/04/24 04:46:57;;;;;;;;;;;8.70;94.50;;;;;;5038502;28;36759;-56
2022/04/24 04:49:32;;;;;;;;;;;8.70;94.80;;;;;;5037183;28;38164;-57
2022/04/24 04:51:59;;;;;;;;;;;8.70;94.80;;;;;;5038585;28;36597;-57
2022/04/24 04:54:26;;;;;;;;;;;8.70;95.00;;;;;;5037399;28;38042;-56
2022/04/24 04:56:53;;;;;;;;;;;8.70;95.00;;;;;;5036681;28;38118;-58
2022/04/24 04:59:20;;;;;;;;;;;8.70;95.00;;;;;;5036435;28;38383;-57
2022/04/24 05:01:47;;;;;;;;;;;8.70;95.20;;;;;;5038651;28;36607;-58
2022/04/24 05:04:15;;;;;;;;;;;8.80;95.20;;;;;;5037533;28;37627;-57
2022/04/24 05:06:43;;;;;;;;;;;8.80;95.10;;;;;;5038051;28;38285;-56
2022/04/24 05:09:10;;;;;;;;;;;8.80;95.20;;;;;;5037474;28;37095;-56
2022/04/24 05:11:39;;;;;;;;;;;8.90;95.50;;;;;;5037812;28;37137;-57
2022/04/24 05:14:06;;;;;;;;;;;8.90;95.10;;;;;;5036802;28;37827;-56
2022/04/24 05:16:33;;;;;;;;;;;9.00;95.40;;;;;;5038259;28;37800;-57
2022/04/24 05:19:00;;;;;;;;;;;9.00;95.30;;;;;;5036438;28;37296;-58
2022/04/24 05:21:28;;;;;;;;;;;9.10;95.70;;;;;;5037901;28;36295;-58
2022/04/24 05:24:00;;;;;;;;;;;9.20;95.20;;;;;;5037277;28;37567;-58
2022/04/24 05:26:27;;;;;;;;;;;9.30;95.20;;;;;;5037001;28;36565;-58
2022/04/24 05:28:54;;;;;;;;;;;9.30;95.10;;;;;;5036362;28;36267;-58
2022/04/24 05:31:21;;;;;;;;;;;9.40;95.40;;;;;;5039198;28;36401;-58
2022/04/24 05:33:49;;;;;;;;;;;9.40;94.90;;;;;;5033661;28;38830;-58
2022/04/24 05:36:16;;;;;;;;;;;9.40;95.00;;;;;;5037051;28;38492;-57
2022/04/24 05:38:43;;;;;;;;;;;9.50;95.10;;;;;;5037625;28;36914;-57
2022/04/24 05:41:11;;;;;;;;;;;9.60;95.30;;;;;;5038055;28;36781;-57
2022/04/24 05:43:38;;;;;;;;;;;9.70;95.10;;;;;;5037267;28;37982;-58
2022/04/24 05:46:05;;;;;;;;;;;9.80;94.80;;;;;;5037991;28;37545;-57
2022/04/24 05:48:32;;;;;;;;;;;9.70;94.50;;;;;;5038311;28;37981;-57
2022/04/24 05:51:00;;;;;;;;;;;9.90;94.80;;;;;;5035435;28;35949;-57
2022/04/24 05:53:27;;;;;;;;;;;10.20;94.80;;;;;;5038326;28;38396;-57
2022/04/24 05:55:54;;;;;;;;;;;10.60;93.90;;;;;;5037345;28;36897;-57
2022/04/24 05:58:23;;;;;;;;;;;10.90;92.90;;;;;;5034826;28;37180;-57
2022/04/24 06:00:50;;;;;;;;;;;11.20;92.00;;;;;;5036315;28;36349;-57
2022/04/24 06:03:17;;;;;;;;;;;11.50;91.30;;;;;;5035240;28;37672;-57
2022/04/24 06:05:45;;;;;;;;;;;11.90;90.10;;;;;;5036109;28;38294;-57
2022/04/24 06:08:12;;;;;;;;;;;12.40;88.50;;;;;;5036767;28;37632;-57
2022/04/24 06:10:39;;;;;;;;;;;12.80;84.50;;;;;;5037558;28;35406;-57
2022/04/24 06:13:06;;;;;;;;;;;13.30;82.70;;;;;;5036775;28;38701;-57
2022/04/24 06:15:35;;;;;;;;;;;13.50;79.20;;;;;;5035684;28;37775;-57
2022/04/24 06:18:02;;;;;;;;;;;13.40;80.30;;;;;;5035311;28;38609;-57
2022/04/24 06:20:29;;;;;;;;;;;13.10;79.40;;;;;;5033369;28;36444;-57
2022/04/24 06:22:57;;;;;;;;;;;12.90;80.40;;;;;;5034835;28;38119;-58
2022/04/24 06:25:24;;;;;;;;;;;12.80;80.10;;;;;;5033745;28;36623;-58
2022/04/24 06:27:52;;;;;;;;;;;12.70;82.30;;;;;;5034112;28;36295;-57
2022/04/24 06:30:20;;;;;;;;;;;12.70;80.70;;;;;;5033943;28;36435;-59
2022/04/24 06:32:48;;;;;;;;;;;12.70;81.60;;;;;;5038146;28;38709;-60
2022/04/24 06:35:16;;;;;;;;;;;12.60;81.90;;;;;;5034587;28;37500;-60
2022/04/24 06:37:44;;;;;;;;;;;12.70;80.90;;;;;;5033083;28;37530;-59
2022/04/24 06:40:12;;;;;;;;;;;12.70;80.20;;;;;;5034491;28;36128;-59
2022/04/24 06:42:48;;;;;;;;;;;12.70;80.90;;;;;;5033408;28;38267;-60
2022/04/24 06:45:15;;;;;;;;;;;12.70;80.80;;;;;;5033623;28;37770;-59
2022/04/24 06:47:42;;;;;;;;;;;12.70;78.60;;;;;;5034352;28;37010;-57
2022/04/24 06:50:11;;;;;;;;;;;12.70;79.00;;;;;;5036052;28;36320;-58
2022/04/24 06:52:38;;;;;;;;;;;12.60;76.50;;;;;;5033290;28;38200;-57
2022/04/24 06:55:06;;;;;;;;;;;12.70;78.10;;;;;;5034060;28;39253;-60
2022/04/24 06:57:33;;;;;;;;;;;12.80;78.30;;;;;;5031497;28;37094;-61
2022/04/24 07:00:00;;;;;;;;;;;12.90;79.60;;;;;;5032827;28;36616;-60
2022/04/24 07:02:27;;;;;;;;;;;13.00;78.90;;;;;;5034334;28;43365;-61
2022/04/24 07:04:54;;;;;;;;;;;13.00;78.50;;;;;;5032736;28;37830;-63
2022/04/24 07:07:23;;;;;;;;;;;13.00;77.70;;;;;;5032239;28;37755;-62
2022/04/24 07:09:50;;;;;;;;;;;13.00;77.20;;;;;;5036711;28;39268;-61
2022/04/24 07:12:17;;;;;;;;;;;12.90;76.70;;;;;;5036280;28;39222;-63
2022/04/24 07:14:44;;;;;;;;;;;12.90;77.50;;;;;;5037146;28;38044;-62
2022/04/24 07:17:11;;;;;;;;;;;13.00;77.40;;;;;;5032739;28;37216;-62
2022/04/24 07:19:38;;;;;;;;;;;13.10;76.30;;;;;;5039380;28;35911;-62
2022/04/24 07:22:05;;;;;;;;;;;13.20;76.30;;;;;;5037323;28;37924;-62
2022/04/24 07:24:34;;;;;;;;;;;13.20;75.70;;;;;;5037357;28;39412;-62
2022/04/24 07:27:01;;;;;;;;;;;13.30;75.10;;;;;;5036800;28;38477;-62
2022/04/24 07:29:28;;;;;;;;;;;13.40;74.80;;;;;;5032327;28;35067;-60
2022/04/24 07:31:57;;;;;;;;;;;13.50;74.30;;;;;;5036709;28;38039;-60
2022/04/24 07:34:24;;;;;;;;;;;13.50;73.20;;;;;;5036986;28;38574;-60
2022/04/24 07:36:51;;;;;;;;;;;13.60;73.10;;;;;;5037756;28;38492;-59
2022/04/24 07:39:19;;;;;;;;;;;13.60;71.90;;;;;;5036824;28;37874;-59
2022/04/24 07:41:47;;;;;;;;;;;13.70;74.40;;;;;;5037447;28;37471;-59
2022/04/24 07:44:14;;;;;;;;;;;13.90;71.90;;;;;;5038280;28;38791;-61
2022/04/24 07:46:41;;;;;;;;;;;14.00;71.90;;;;;;5033103;28;37399;-61
2022/04/24 07:49:08;;;;;;;;;;;14.00;69.20;;;;;;5038073;28;36176;-61
2022/04/24 07:51:35;;;;;;;;;;;14.10;71.10;;;;;;5035915;28;38494;-61
2022/04/24 07:54:02;;;;;;;;;;;14.20;71.40;;;;;;5037836;28;38902;-59
2022/04/24 07:56:29;;;;;;;;;;;14.20;69.90;;;;;;5036401;28;37284;-59
2022/04/24 07:58:57;;;;;;;;;;;14.40;70.30;;;;;;5035505;28;36159;-60
2022/04/24 08:01:25;;;;;;;;;;;14.50;69.80;;;;;;5039175;28;37426;-60
2022/04/24 08:03:52;;;;;;;;;;;14.50;68.50;;;;;;5035400;28;38732;-61
2022/04/24 08:06:19;;;;;;;;;;;14.50;68.80;;;;;;5037591;28;37225;-61
2022/04/24 08:08:46;;;;;;;;;;;14.60;69.10;;;;;;5037938;28;36877;-57
2022/04/24 08:11:13;;;;;;;;;;;14.70;69.70;;;;;;5038075;27;37549;-61
2022/04/24 08:13:43;;;;;;;;;;;14.80;68.60;;;;;;5035554;28;38113;-60
2022/04/24 08:16:11;;;;;;;;;;;14.90;69.70;;;;;;5036103;28;35907;-61
2022/04/24 08:18:38;;;;;;;;;;;15.10;69.50;;;;;;5037131;28;35610;-60
2022/04/24 08:21:05;;;;;;;;;;;15.20;69.10;;;;;;5037382;28;38574;-61
2022/04/24 08:23:32;;;;;;;;;;;15.40;68.10;;;;;;5035918;28;38260;-57
2022/04/24 08:26:00;;;;;;;;;;;15.50;66.90;;;;;;5035804;28;39640;-59
2022/04/24 08:28:27;;;;;;;;;;;15.60;67.10;;;;;;5036103;28;36911;-58
2022/04/24 08:30:54;;;;;;;;;;;15.80;67.90;;;;;;5036644;28;37737;-58
2022/04/24 08:33:23;;;;;;;;;;;16.00;67.40;;;;;;5037484;28;37852;-59
2022/04/24 08:35:50;;;;;;;;;;;16.20;65.60;;;;;;5037373;28;38345;-59
2022/04/24 08:38:17;;;;;;;;;;;16.40;63.90;;;;;;5035955;28;37517;-58
2022/04/24 08:40:45;;;;;;;;;;;16.60;63.00;;;;;;5037283;28;37966;-58
2022/04/24 08:43:13;;;;;;;;;;;16.50;62.80;;;;;;5036348;28;36990;-59
2022/04/24 08:45:41;;;;;;;;;;;16.50;62.40;;;;;;5035483;28;36175;-59
2022/04/24 08:48:09;;;;;;;;;;;16.50;58.40;;;;;;5038299;27;37062;-58
2022/04/24 08:50:37;;;;;;;;;;;16.50;61.20;;;;;;5035654;28;37437;-59
2022/04/24 08:53:05;;;;;;;;;;;16.50;60.70;;;;;;5033903;28;37156;-59
2022/04/24 08:55:33;;;;;;;;;;;16.60;60.50;;;;;;5034492;28;37017;-59
2022/04/24 08:58:00;;;;;;;;;;;16.70;61.30;;;;;;5034145;28;35157;-59
2022/04/24 09:00:29;;;;;;;;;;;16.80;60.50;;;;;;5035780;28;37794;-59
2022/04/24 09:02:57;;;;;;;;;;;17.00;60.30;;;;;;5036286;28;38981;-59
2022/04/24 09:05:24;;;;;;;;;;;17.10;58.20;;;;;;5034474;28;37087;-59
2022/04/24 09:07:55;;;;;;;;;;;17.20;58.80;;;;;;5035777;28;35480;-59
2022/04/24 09:10:22;;;;;;;;;;;17.20;58.30;;;;;;5035345;28;40205;-58
2022/04/24 09:12:53;;;;;;;;;;;17.20;59.00;;;;;;5035006;28;39892;-59
2022/04/24 09:15:20;;;;;;;;;;;17.40;58.50;;;;;;5035675;28;38720;-58
2022/04/24 09:17:47;;;;;;;;;;;17.50;58.00;;;;;;5035934;28;36400;-59
2022/04/24 09:20:17;;;;;;;;;;;17.50;56.10;;;;;;5035197;28;37564;-58
2022/04/24 09:22:45;;;;;;;;;;;17.50;56.00;;;;;;5032369;28;39565;-59
2022/04/24 09:25:13;;;;;;;;;;;17.50;59.60;;;;;;5031482;28;39293;-61
2022/04/24 09:27:40;;;;;;;;;;;17.50;59.10;;;;;;5031096;28;36548;-59
2022/04/24 09:30:10;;;;;;;;;;;17.50;56.50;;;;;;5031874;28;37827;-60
2022/04/24 09:32:41;;;;;;;;;;;17.40;58.10;;;;;;5034332;28;37528;-61
2022/04/24 09:35:08;;;;;;;;;;;17.40;55.70;;;;;;5036272;28;37366;-60
2022/04/24 09:37:38;;;;;;;;;;;17.40;56.40;;;;;;5038577;28;35375;-65
2022/04/24 09:40:06;;;;;;;;;;;17.40;56.90;;;;;;5038020;28;37738;-60
2022/04/24 09:42:35;;;;;;;;;;;17.20;53.80;;;;;;5038510;28;37840;-60
2022/04/24 09:45:02;;;;;;;;;;;17.30;55.50;;;;;;5037842;28;38066;-61
2022/04/24 09:47:29;;;;;;;;;;;17.30;56.50;;;;;;5030416;28;38658;-60
2022/04/24 09:49:56;;;;;;;;;;;17.40;55.60;;;;;;5033456;28;37612;-61
2022/04/24 09:52:25;;;;;;;;;;;17.40;54.10;;;;;;5033208;28;38152;-61
2022/04/24 09:54:52;;;;;;;;;;;17.50;53.80;;;;;;5031525;28;36713;-60
2022/04/24 09:57:20;;;;;;;;;;;17.50;52.90;;;;;;5035221;28;37141;-61
2022/04/24 09:59:50;;;;;;;;;;;17.50;54.80;;;;;;5034656;28;37185;-62
2022/04/24 10:02:19;;;;;;;;;;;17.40;55.00;;;;;;5049893;28;31164;-61
2022/04/24 10:04:46;;;;;;;;;;;17.40;56.30;;;;;;5032219;28;36891;-60
2022/04/24 10:07:14;;;;;;;;;;;17.40;56.70;;;;;;5033514;28;36613;-60
2022/04/24 10:09:42;;;;;;;;;;;17.50;55.60;;;;;;5033312;28;37766;-60
2022/04/24 10:12:10;;;;;;;;;;;17.50;56.20;;;;;;5036075;28;36289;-60
2022/04/24 10:14:39;;;;;;;;;;;17.40;53.80;;;;;;5033521;28;37373;-63
2022/04/24 10:17:21;;;;;;;;;;;17.30;55.10;;;;;;5035036;28;36897;-62
2022/04/24 10:19:57;;;;;;;;;;;17.10;57.90;;;;;;5034563;28;38501;-61
2022/04/24 10:22:31;;;;;;;;;;;17.20;57.10;;;;;;5028559;28;37588;-60
2022/04/24 10:25:00;;;;;;;;;;;17.40;58.20;;;;;;5033101;28;37732;-60
2022/04/24 10:27:36;;;;;;;;;;;17.40;56.50;;;;;;5033697;28;36325;-60
2022/04/24 10:30:03;;;;;;;;;;;17.40;54.90;;;;;;5034132;28;37920;-61
2022/04/24 10:32:31;;;;;;;;;;;17.30;58.00;;;;;;5034494;28;38085;-61
2022/04/24 10:35:00;;;;;;;;;;;17.20;57.60;;;;;;5034636;28;36896;-61
2022/04/24 10:37:28;;;;;;;;;;;17.10;57.30;;;;;;5034127;28;34986;-61
2022/04/24 10:39:55;;;;;;;;;;;17.10;58.40;;;;;;5036553;28;37707;-60
2022/04/24 10:42:29;;;;;;;;;;;17.10;56.90;;;;;;5034159;28;37630;-61
2022/04/24 10:45:05;;;;;;;;;;;17.00;57.60;;;;;;5040402;28;37834;-66
2022/04/24 10:47:41;;;;;;;;;;;17.00;58.30;;;;;;5039321;28;36346;-63
2022/04/24 10:50:10;;;;;;;;;;;16.90;57.10;;;;;;5039600;28;39036;-57
2022/04/24 10:52:41;;;;;;;;;;;16.90;56.40;;;;;;5039120;28;38121;-57
2022/04/24 10:55:09;;;;;;;;;;;16.80;57.70;;;;;;5036240;28;36215;-57
2022/04/24 10:57:41;;;;;;;;;;;16.90;58.10;;;;;;5038574;28;35815;-57
2022/04/24 11:00:14;;;;;;;;;;;16.90;57.70;;;;;;5039235;28;37655;-57
2022/04/24 11:02:41;;;;;;;;;;;16.90;58.30;;;;;;5037004;28;37850;-57
2022/04/24 11:05:10;;;;;;;;;;;16.90;59.20;;;;;;5037330;28;36192;-57
2022/04/24 11:07:37;;;;;;;;;;;16.80;57.10;;;;;;5034683;28;36193;-57
2022/04/24 11:10:05;;;;;;;;;;;16.70;58.80;;;;;;5037252;28;37182;-57
2022/04/24 11:12:33;;;;;;;;;;;16.60;58.00;;;;;;5032439;28;38077;-57
2022/04/24 11:15:06;;;;;;;;;;;16.50;61.10;;;;;;5039427;28;38495;-63
2022/04/24 11:17:33;;;;;;;;;;;16.40;64.50;;;;;;5039368;28;38625;-63
2022/04/24 11:20:03;;;;;;;;;;;16.50;66.30;;;;;;5038034;28;38459;-64
2022/04/24 11:22:32;;;;;;;;;;;16.60;61.90;;;;;;5038165;28;36658;-64
2022/04/24 11:24:59;;;;;;;;;;;16.60;64.20;;;;;;5038350;28;36744;-63
2022/04/24 11:27:27;;;;;;;;;;;16.60;66.90;;;;;;5038937;28;35743;-64
2022/04/24 11:29:55;;;;;;;;;;;16.60;64.90;;;;;;5036622;28;39137;-62
2022/04/24 11:32:22;;;;;;;;;;;16.60;65.70;;;;;;5032037;28;37900;-63
2022/04/24 11:34:49;;;;;;;;;;;16.50;64.20;;;;;;5033757;28;43410;-63
2022/04/24 11:37:16;;;;;;;;;;;16.60;66.80;;;;;;5036741;28;36332;-63
2022/04/24 11:39:44;;;;;;;;;;;16.60;65.70;;;;;;5031340;28;37128;-64
2022/04/24 11:42:11;;;;;;;;;;;16.40;64.70;;;;;;5031436;27;40467;-65
2022/04/24 11:50:17;;;;;;;;;;;16.60;68.50;;;;;;5032770;28;39318;-56
2022/04/24 11:52:46;;;;;;;;;;;16.60;65.60;;;;;;5034628;28;38326;-56
2022/04/24 11:55:15;;;;;;;;;;;16.60;68.10;;;;;;5028668;28;36858;-56
2022/04/24 11:57:45;;;;;;;;;;;16.60;66.80;;;;;;5030363;28;35090;-56
2022/04/24 12:00:15;;;;;;;;;;;16.60;66.20;;;;;;5030971;28;38591;-56
2022/04/24 12:02:42;;;;;;;;;;;16.60;68.10;;;;;;5034976;28;38971;-57
2022/04/24 12:05:10;;;;;;;;;;;16.70;67.30;;;;;;5033350;28;38406;-56
2022/04/24 12:07:37;;;;;;;;;;;16.60;66.20;;;;;;5033061;28;35869;-57
2022/04/24 12:10:05;;;;;;;;;;;16.60;68.30;;;;;;5035476;28;37686;-57
2022/04/24 12:12:43;;;;;;;;;;;16.60;65.00;;;;;;5034736;28;38374;-57
2022/04/24 12:15:13;;;;;;;;;;;16.40;67.00;;;;;;5032330;28;36825;-57
2022/04/24 12:17:48;;;;;;;;;;;16.30;67.80;;;;;;5030587;28;36108;-56
2022/04/24 12:20:16;;;;;;;;;;;16.20;70.70;;;;;;5030416;28;40195;-56
2022/04/24 12:22:45;;;;;;;;;;;16.10;70.40;;;;;;5033401;28;37775;-57
2022/04/24 12:25:15;;;;;;;;;;;16.20;71.20;;;;;;5033536;28;37728;-55
2022/04/24 12:27:55;;;;;;;;;;;16.10;71.10;;;;;;5035503;28;36315;-55
2022/04/24 12:30:24;;;;;;;;;;;16.10;71.30;;;;;;5033223;28;37920;-55
2022/04/24 12:32:51;;;;;;;;;;;16.10;73.70;;;;;;5033580;28;38591;-55
2022/04/24 12:35:28;;;;;;;;;;;16.00;71.00;;;;;;5032158;28;37259;-55
2022/04/24 12:37:55;;;;;;;;;;;16.00;72.30;;;;;;5035847;28;38184;-55
2022/04/24 12:40:23;;;;;;;;;;;15.90;70.00;;;;;;5034430;28;38080;-55
2022/04/24 12:42:54;;;;;;;;;;;15.90;70.50;;;;;;5035178;28;36949;-55
2022/04/24 12:45:22;;;;;;;;;;;15.80;72.20;;;;;;5038829;28;38362;-56
2022/04/24 12:47:49;;;;;;;;;;;15.80;71.60;;;;;;5038281;28;38007;-55
2022/04/24 12:50:16;;;;;;;;;;;15.80;71.70;;;;;;5033823;28;37423;-55
2022/04/24 12:52:43;;;;;;;;;;;15.70;71.40;;;;;;5038167;28;38311;-54
2022/04/24 12:55:11;;;;;;;;;;;15.50;72.50;;;;;;5035289;28;37418;-56
2022/04/24 12:57:39;;;;;;;;;;;15.50;74.90;;;;;;5038461;28;35829;-55
2022/04/24 13:00:08;;;;;;;;;;;15.50;75.20;;;;;;5038791;28;39689;-55
2022/04/24 13:02:35;;;;;;;;;;;15.40;72.10;;;;;;5036885;28;38789;-56
2022/04/24 13:05:02;;;;;;;;;;;15.40;72.70;;;;;;5037900;28;35972;-56
2022/04/24 13:07:30;;;;;;;;;;;15.30;73.90;;;;;;5034095;28;37410;-56
2022/04/24 13:09:58;;;;;;;;;;;15.30;76.20;;;;;;5038127;28;37866;-56
2022/04/24 13:12:26;;;;;;;;;;;15.30;74.70;;;;;;5032735;28;36845;-56
2022/04/24 13:14:53;;;;;;;;;;;15.30;73.40;;;;;;5035074;28;36124;-54
2022/04/24 13:20:07;;;;;;;;;;;15.10;72.20;;;;;;5036377;28;38788;-56
2022/04/24 13:22:34;;;;;;;;;;;15.00;73.90;;;;;;5036504;28;40422;-55
2022/04/24 13:25:01;;;;;;;;;;;14.90;74.40;;;;;;5036745;28;38206;-56
2022/04/24 13:27:28;;;;;;;;;;;14.90;74.80;;;;;;5035733;28;38785;-55
2022/04/24 13:29:55;;;;;;;;;;;15.00;75.10;;;;;;5036527;28;37797;-55
2022/04/24 13:32:25;;;;;;;;;;;15.00;76.00;;;;;;5037392;28;37968;-55
2022/04/24 13:34:52;;;;;;;;;;;14.90;74.40;;;;;;5038409;28;37296;-55
2022/04/24 13:40:04;;;;;;;;;;;14.90;75.20;;;;;;5036397;28;37681;-56
2022/04/24 13:42:31;;;;;;;;;;;14.90;72.10;;;;;;5036505;28;37340;-56
2022/04/24 13:44:58;;;;;;;;;;;14.80;73.70;;;;;;5036028;28;38408;-56
2022/04/24 13:47:26;;;;;;;;;;;14.80;72.90;;;;;;5037253;28;36168;-56
2022/04/24 13:49:54;;;;;;;;;;;14.80;74.60;;;;;;5036921;28;37611;-55
2022/04/24 13:52:28;;;;;;;;;;;14.70;76.00;;;;;;5036740;28;38138;-56
2022/04/24 13:54:55;;;;;;;;;;;14.70;74.40;;;;;;5036543;28;37303;-56
2022/04/24 13:57:22;;;;;;;;;;;14.60;72.20;;;;;;5036351;28;36130;-56
2022/04/24 13:59:50;;;;;;;;;;;14.60;75.90;;;;;;5036090;28;37617;-56
2022/04/24 14:02:17;;;;;;;;;;;14.60;76.50;;;;;;5035302;28;36641;-56
2022/04/24 14:04:45;;;;;;;;;;;14.60;74.60;;;;;;5035997;28;38287;-56
2022/04/24 14:07:12;;;;;;;;;;;14.60;74.00;;;;;;5036148;28;37027;-56
2022/04/24 14:09:41;;;;;;;;;;;14.60;76.80;;;;;;5036898;28;37616;-56
2022/04/24 14:12:10;;;;;;;;;;;14.60;75.10;;;;;;5037285;28;37967;-56
2022/04/24 14:14:37;;;;;;;;;;;14.50;74.80;;;;;;5037716;28;37288;-56
2022/04/24 14:17:04;;;;;;;;;;;14.40;75.40;;;;;;5035434;28;36001;-56
2022/04/24 14:19:34;;;;;;;;;;;14.40;78.70;;;;;;5035749;28;37838;-56
2022/04/24 14:22:03;;;;;;;;;;;14.40;77.70;;;;;;5033079;28;39158;-56
2022/04/24 14:24:30;;;;;;;;;;;14.40;77.60;;;;;;5036158;28;37989;-56
2022/04/24 14:26:57;;;;;;;;;;;14.40;78.50;;;;;;5037126;28;37049;-56
2022/04/24 14:29:24;;;;;;;;;;;14.30;78.10;;;;;;5037792;28;37628;-56
2022/04/24 14:31:52;;;;;;;;;;;14.30;77.40;;;;;;5036321;28;37259;-56
2022/04/24 14:34:19;;;;;;;;;;;14.20;77.60;;;;;;5036112;28;38456;-56
2022/04/24 14:36:46;;;;;;;;;;;14.20;76.70;;;;;;5037189;28;36105;-56